createdAt,value
2023-04-25T00:00:28.251Z,480.00
2023-04-25T00:01:28.334Z,480.00
2023-04-25T00:02:28.470Z,479.00
2023-04-25T00:03:28.567Z,480.00
2023-04-25T00:04:28.668Z,478.00
2023-04-25T00:05:28.524Z,478.00
2023-04-25T00:06:28.597Z,479.00
2023-04-25T00:07:28.642Z,479.00
2023-04-25T00:08:28.680Z,481.00
2023-04-25T00:09:28.749Z,481.00
2023-04-25T00:10:28.810Z,482.00
2023-04-25T00:11:28.830Z,481.00
2023-04-25T00:12:28.926Z,483.00
2023-04-25T00:13:28.957Z,487.00
2023-04-25T00:14:29.034Z,489.00
2023-04-25T00:15:29.058Z,489.00
2023-04-25T00:16:29.201Z,486.00
2023-04-25T00:17:29.214Z,487.00
2023-04-25T00:18:29.234Z,486.00
2023-04-25T00:19:29.395Z,485.00
2023-04-25T00:20:29.348Z,486.00
2023-04-25T00:21:29.425Z,485.00
2023-04-25T00:22:29.464Z,483.00
2023-04-25T00:23:29.544Z,483.00
2023-04-25T00:24:29.584Z,483.00
2023-04-25T00:25:29.625Z,483.00
2023-04-25T00:26:29.682Z,481.00
2023-04-25T00:27:29.770Z,481.00
2023-04-25T00:28:29.795Z,481.00
2023-04-25T00:29:29.909Z,482.00
2023-04-25T00:30:29.938Z,479.00
2023-04-25T00:31:30.094Z,480.00
2023-04-25T00:32:30.126Z,479.00
2023-04-25T00:33:30.152Z,481.00
2023-04-25T00:34:30.207Z,481.00
2023-04-25T00:35:30.244Z,480.00
2023-04-25T00:36:30.283Z,484.00
2023-04-25T00:37:30.351Z,483.00
2023-04-25T00:38:30.417Z,484.00
2023-04-25T00:39:30.494Z,484.00
2023-04-25T00:40:30.538Z,484.00
2023-04-25T00:41:30.606Z,484.00
2023-04-25T00:42:30.631Z,485.00
2023-04-25T00:43:30.679Z,485.00
2023-04-25T00:44:30.770Z,486.00
2023-04-25T00:45:30.826Z,487.00
2023-04-25T00:46:30.951Z,486.00
2023-04-25T00:47:30.989Z,486.00
2023-04-25T00:48:30.989Z,484.00
2023-04-25T00:49:31.059Z,483.00
2023-04-25T00:50:31.103Z,482.00
2023-04-25T00:51:31.155Z,480.00
2023-04-25T00:52:31.199Z,481.00
2023-04-25T00:53:31.253Z,482.00
2023-04-25T00:54:31.290Z,480.00
2023-04-25T00:55:31.309Z,482.00
2023-04-25T00:56:31.334Z,485.00
2023-04-25T00:57:31.408Z,485.00
2023-04-25T00:58:31.405Z,486.00
2023-04-25T00:59:31.451Z,484.00
2023-04-25T01:00:31.533Z,483.00
2023-04-25T01:01:31.475Z,484.00
2023-04-25T01:02:31.620Z,483.00
2023-04-25T01:03:31.615Z,482.00
2023-04-25T01:04:31.645Z,483.00
2023-04-25T01:05:31.655Z,483.00
2023-04-25T01:06:31.692Z,485.00
2023-04-25T01:07:31.702Z,482.00
2023-04-25T01:08:31.729Z,482.00
2023-04-25T01:09:31.733Z,482.00
2023-04-25T01:10:31.703Z,484.00
2023-04-25T01:11:33.671Z,481.00
2023-04-25T01:12:31.764Z,479.00
2023-04-25T01:13:31.809Z,479.00
2023-04-25T01:14:31.799Z,476.00
2023-04-25T01:15:31.817Z,476.00
2023-04-25T01:16:31.893Z,477.00
2023-04-25T01:17:31.924Z,477.00
2023-04-25T01:18:31.887Z,477.00
2023-04-25T01:19:31.959Z,477.00
2023-04-25T01:20:31.963Z,479.00
2023-04-25T01:21:32.020Z,478.00
2023-04-25T01:22:32.004Z,477.00
2023-04-25T01:23:32.026Z,475.00
2023-04-25T01:24:32.062Z,475.00
2023-04-25T01:25:32.106Z,474.00
2023-04-25T01:26:32.162Z,473.00
2023-04-25T01:27:32.159Z,474.00
2023-04-25T01:28:32.116Z,475.00
2023-04-25T01:29:32.213Z,474.00
2023-04-25T01:30:32.172Z,474.00
2023-04-25T01:31:32.177Z,476.00
2023-04-25T01:32:32.198Z,477.00
2023-04-25T01:33:32.192Z,476.00
2023-04-25T01:34:32.160Z,476.00
2023-04-25T01:35:32.158Z,477.00
2023-04-25T01:36:32.188Z,478.00
2023-04-25T01:37:32.163Z,477.00
2023-04-25T01:38:32.145Z,478.00
2023-04-25T01:39:32.150Z,476.00
2023-04-25T01:40:32.121Z,475.00
2023-04-25T01:41:32.119Z,473.00
2023-04-25T01:42:32.128Z,474.00
2023-04-25T01:43:32.100Z,475.00
2023-04-25T01:44:32.120Z,476.00
2023-04-25T01:45:32.137Z,476.00
2023-04-25T01:46:32.249Z,476.00
2023-04-25T01:47:33.146Z,475.00
2023-04-25T01:48:32.110Z,475.00
2023-04-25T01:49:32.078Z,476.00
2023-04-25T01:50:32.084Z,478.00
2023-04-25T01:51:32.074Z,478.00
2023-04-25T01:52:32.103Z,478.00
2023-04-25T01:53:32.077Z,479.00
2023-04-25T01:54:32.078Z,477.00
2023-04-25T01:55:32.076Z,477.00
2023-04-25T01:56:32.084Z,475.00
2023-04-25T01:57:32.073Z,476.00
2023-04-25T01:58:32.098Z,476.00
2023-04-25T01:59:32.046Z,479.00
2023-04-25T02:00:32.043Z,481.00
2023-04-25T02:01:32.180Z,480.00
2023-04-25T02:02:32.198Z,481.00
2023-04-25T02:03:32.196Z,477.00
2023-04-25T02:04:32.094Z,478.00
2023-04-25T02:05:32.050Z,476.00
2023-04-25T02:06:32.062Z,479.00
2023-04-25T02:07:32.062Z,479.00
2023-04-25T02:08:32.041Z,478.00
2023-04-25T02:09:32.075Z,479.00
2023-04-25T02:10:32.034Z,478.00
2023-04-25T02:11:32.037Z,476.00
2023-04-25T02:12:32.053Z,477.00
2023-04-25T02:13:32.068Z,479.00
2023-04-25T02:14:32.067Z,479.00
2023-04-25T02:15:32.070Z,480.00
2023-04-25T02:16:32.306Z,479.00
2023-04-25T02:17:32.043Z,479.00
2023-04-25T02:18:32.051Z,482.00
2023-04-25T02:19:32.032Z,481.00
2023-04-25T02:20:32.058Z,485.00
2023-04-25T02:21:32.022Z,488.00
2023-04-25T02:22:32.064Z,487.00
2023-04-25T02:23:32.041Z,486.00
2023-04-25T02:24:32.044Z,482.00
2023-04-25T02:25:32.070Z,482.00
2023-04-25T02:26:32.052Z,483.00
2023-04-25T02:27:32.037Z,483.00
2023-04-25T02:28:32.065Z,482.00
2023-04-25T02:29:32.083Z,483.00
2023-04-25T02:30:32.084Z,483.00
2023-04-25T02:31:32.241Z,485.00
2023-04-25T02:32:32.105Z,484.00
2023-04-25T02:33:32.093Z,484.00
2023-04-25T02:34:32.101Z,484.00
2023-04-25T02:35:32.081Z,482.00
2023-04-25T02:36:32.121Z,483.00
2023-04-25T02:37:32.118Z,484.00
2023-04-25T02:38:32.118Z,481.00
2023-04-25T02:39:32.137Z,482.00
2023-04-25T02:40:32.128Z,480.00
2023-04-25T02:41:32.168Z,481.00
2023-04-25T02:42:32.168Z,480.00
2023-04-25T02:43:32.154Z,479.00
2023-04-25T02:44:32.160Z,479.00
2023-04-25T02:45:32.187Z,482.00
2023-04-25T02:46:39.148Z,483.00
2023-04-25T02:47:33.213Z,482.00
2023-04-25T02:48:32.164Z,483.00
2023-04-25T02:49:32.156Z,482.00
2023-04-25T02:50:32.112Z,481.00
2023-04-25T02:51:32.182Z,481.00
2023-04-25T02:52:32.094Z,481.00
2023-04-25T02:53:32.100Z,479.00
2023-04-25T02:54:32.132Z,479.00
2023-04-25T02:55:32.088Z,479.00
2023-04-25T02:56:32.102Z,478.00
2023-04-25T02:57:32.107Z,478.00
2023-04-25T02:58:32.093Z,478.00
2023-04-25T02:59:32.080Z,477.00
2023-04-25T03:00:32.079Z,478.00
2023-04-25T03:01:32.053Z,476.00
2023-04-25T03:02:32.094Z,475.00
2023-04-25T03:03:32.172Z,479.00
2023-04-25T03:04:32.077Z,481.00
2023-04-25T03:05:32.047Z,482.00
2023-04-25T03:06:32.004Z,481.00
2023-04-25T03:07:32.051Z,482.00
2023-04-25T03:08:32.012Z,483.00
2023-04-25T03:09:32.010Z,484.00
2023-04-25T03:10:32.009Z,484.00
2023-04-25T03:11:31.980Z,485.00
2023-04-25T03:12:31.988Z,486.00
2023-04-25T03:13:31.981Z,484.00
2023-04-25T03:14:32.003Z,483.00
2023-04-25T03:15:31.953Z,482.00
2023-04-25T03:16:32.083Z,482.00
2023-04-25T03:17:31.964Z,483.00
2023-04-25T03:18:31.927Z,482.00
2023-04-25T03:19:31.947Z,483.00
2023-04-25T03:20:31.932Z,483.00
2023-04-25T03:21:31.924Z,484.00
2023-04-25T03:22:31.943Z,483.00
2023-04-25T03:23:31.924Z,483.00
2023-04-25T03:24:31.988Z,487.00
2023-04-25T03:25:31.979Z,486.00
2023-04-25T03:26:31.987Z,487.00
2023-04-25T03:27:32.016Z,485.00
2023-04-25T03:28:32.010Z,486.00
2023-04-25T03:29:32.021Z,485.00
2023-04-25T03:30:32.051Z,484.00
2023-04-25T03:31:32.190Z,483.00
2023-04-25T03:32:32.061Z,481.00
2023-04-25T03:33:32.075Z,479.00
2023-04-25T03:34:32.078Z,478.00
2023-04-25T03:35:32.087Z,478.00
2023-04-25T03:36:32.121Z,478.00
2023-04-25T03:37:32.143Z,479.00
2023-04-25T03:38:32.118Z,478.00
2023-04-25T03:39:32.138Z,478.00
2023-04-25T03:40:32.171Z,478.00
2023-04-25T03:41:32.157Z,479.00
2023-04-25T03:42:32.196Z,479.00
2023-04-25T03:43:32.220Z,477.00
2023-04-25T03:44:32.231Z,477.00
2023-04-25T03:45:32.263Z,476.00
2023-04-25T03:46:32.317Z,475.00
2023-04-25T03:47:32.240Z,474.00
2023-04-25T03:48:32.285Z,473.00
2023-04-25T03:49:32.275Z,472.00
2023-04-25T03:50:32.264Z,473.00
2023-04-25T03:51:32.294Z,473.00
2023-04-25T03:52:32.306Z,473.00
2023-04-25T03:53:32.321Z,473.00
2023-04-25T03:54:32.340Z,471.00
2023-04-25T03:55:32.324Z,473.00
2023-04-25T03:56:32.344Z,474.00
2023-04-25T03:57:32.396Z,477.00
2023-04-25T03:58:32.392Z,478.00
2023-04-25T03:59:32.418Z,476.00
2023-04-25T04:00:32.381Z,476.00
2023-04-25T04:01:32.412Z,476.00
2023-04-25T04:02:32.714Z,475.00
2023-04-25T04:03:32.661Z,474.00
2023-04-25T04:04:32.644Z,474.00
2023-04-25T04:05:32.535Z,476.00
2023-04-25T04:06:32.505Z,477.00
2023-04-25T04:07:32.555Z,477.00
2023-04-25T04:08:32.541Z,477.00
2023-04-25T04:09:32.582Z,476.00
2023-04-25T04:10:32.573Z,476.00
2023-04-25T04:11:32.600Z,477.00
2023-04-25T04:12:32.632Z,475.00
2023-04-25T04:13:32.640Z,475.00
2023-04-25T04:14:32.721Z,478.00
2023-04-25T04:15:32.714Z,479.00
2023-04-25T04:16:34.428Z,478.00
2023-04-25T04:17:32.595Z,479.00
2023-04-25T04:18:32.575Z,480.00
2023-04-25T04:19:32.608Z,483.00
2023-04-25T04:20:32.592Z,483.00
2023-04-25T04:21:32.596Z,482.00
2023-04-25T04:22:32.580Z,481.00
2023-04-25T04:23:32.550Z,482.00
2023-04-25T04:24:32.559Z,478.00
2023-04-25T04:25:32.533Z,478.00
2023-04-25T04:26:32.517Z,477.00
2023-04-25T04:27:32.585Z,478.00
2023-04-25T04:28:32.554Z,480.00
2023-04-25T04:29:32.509Z,482.00
2023-04-25T04:30:32.506Z,484.00
2023-04-25T04:31:32.560Z,486.00
2023-04-25T04:32:32.504Z,488.00
2023-04-25T04:33:32.495Z,489.00
2023-04-25T04:34:32.502Z,490.00
2023-04-25T04:35:32.495Z,490.00
2023-04-25T04:36:32.503Z,489.00
2023-04-25T04:37:32.529Z,486.00
2023-04-25T04:38:32.551Z,485.00
2023-04-25T04:39:32.545Z,484.00
2023-04-25T04:40:32.601Z,484.00
2023-04-25T04:41:32.606Z,482.00
2023-04-25T04:42:32.621Z,482.00
2023-04-25T04:43:32.635Z,481.00
2023-04-25T04:44:32.694Z,481.00
2023-04-25T04:45:32.660Z,484.00
2023-04-25T04:46:32.716Z,481.00
2023-04-25T04:47:32.710Z,479.00
2023-04-25T04:48:32.713Z,478.00
2023-04-25T04:49:32.719Z,478.00
2023-04-25T04:50:32.723Z,477.00
2023-04-25T04:51:32.770Z,477.00
2023-04-25T04:52:32.799Z,479.00
2023-04-25T04:53:32.775Z,478.00
2023-04-25T04:54:32.804Z,480.00
2023-04-25T04:55:32.816Z,478.00
2023-04-25T04:56:32.827Z,481.00
2023-04-25T04:57:32.838Z,482.00
2023-04-25T04:58:32.865Z,485.00
2023-04-25T04:59:32.878Z,486.00
2023-04-25T05:00:32.954Z,485.00
2023-04-25T05:01:32.869Z,486.00
2023-04-25T05:02:32.985Z,487.00
2023-04-25T05:03:33.097Z,486.00
2023-04-25T05:04:32.994Z,485.00
2023-04-25T05:05:32.977Z,483.00
2023-04-25T05:06:32.968Z,483.00
2023-04-25T05:07:32.945Z,481.00
2023-04-25T05:08:32.972Z,481.00
2023-04-25T05:09:32.974Z,482.00
2023-04-25T05:10:33.028Z,482.00
2023-04-25T05:11:33.051Z,482.00
2023-04-25T05:12:34.034Z,481.00
2023-04-25T05:13:33.046Z,481.00
2023-04-25T05:14:33.088Z,479.00
2023-04-25T05:15:33.721Z,480.00
2023-04-25T05:16:33.206Z,481.00
2023-04-25T05:17:33.172Z,479.00
2023-04-25T05:18:33.138Z,477.00
2023-04-25T05:19:33.117Z,473.00
2023-04-25T05:20:33.181Z,471.00
2023-04-25T05:21:33.175Z,475.00
2023-04-25T05:22:33.210Z,475.00
2023-04-25T05:23:33.539Z,477.00
2023-04-25T05:24:33.214Z,477.00
2023-04-25T05:25:33.219Z,479.00
2023-04-25T05:26:33.250Z,480.00
2023-04-25T05:27:33.253Z,481.00
2023-04-25T05:28:33.264Z,480.00
2023-04-25T05:29:33.277Z,479.00
2023-04-25T05:30:33.304Z,481.00
2023-04-25T05:31:33.324Z,479.00
2023-04-25T05:32:33.332Z,477.00
2023-04-25T05:33:33.292Z,476.00
2023-04-25T05:34:33.300Z,476.00
2023-04-25T05:35:33.732Z,476.00
2023-04-25T05:36:33.317Z,480.00
2023-04-25T05:37:33.307Z,482.00
2023-04-25T05:38:34.828Z,486.00
2023-04-25T05:39:33.347Z,490.00
2023-04-25T05:40:33.688Z,491.00
2023-04-25T05:41:33.443Z,499.00
2023-04-25T05:42:33.529Z,500.00
2023-04-25T05:43:33.563Z,534.00
2023-04-25T05:44:33.600Z,533.00
2023-04-25T05:45:33.676Z,549.00
2023-04-25T05:46:33.705Z,691.00
2023-04-25T05:47:33.669Z,591.00
2023-04-25T05:48:33.641Z,632.00
2023-04-25T05:49:33.780Z,643.00
2023-04-25T05:50:33.688Z,641.00
2023-04-25T05:51:33.709Z,645.00
2023-04-25T05:52:33.739Z,663.00
2023-04-25T05:53:33.713Z,663.00
2023-04-25T05:54:33.728Z,666.00
2023-04-25T05:55:33.758Z,673.00
2023-04-25T05:56:33.758Z,675.00
2023-04-25T05:57:33.802Z,681.00
2023-04-25T05:58:33.802Z,681.00
2023-04-25T05:59:33.876Z,681.00
2023-04-25T06:00:33.912Z,676.00
2023-04-25T06:01:33.953Z,669.00
2023-04-25T06:02:34.094Z,664.00
2023-04-25T06:03:34.262Z,654.00
2023-04-25T06:04:34.528Z,645.00
2023-04-25T06:05:34.292Z,641.00
2023-04-25T06:06:34.206Z,637.00
2023-04-25T06:07:34.265Z,633.00
2023-04-25T06:08:34.360Z,626.00
2023-04-25T06:09:34.352Z,620.00
2023-04-25T06:10:34.470Z,619.00
2023-04-25T06:11:34.485Z,617.00
2023-04-25T06:12:34.572Z,616.00
2023-04-25T06:13:34.588Z,614.00
2023-04-25T06:14:34.645Z,611.00
2023-04-25T06:15:34.769Z,608.00
2023-04-25T06:16:34.858Z,606.00
2023-04-25T06:17:34.879Z,605.00
2023-04-25T06:18:34.888Z,600.00
2023-04-25T06:19:35.010Z,597.00
2023-04-25T06:20:35.069Z,591.00
2023-04-25T06:21:35.079Z,588.00
2023-04-25T06:22:35.172Z,586.00
2023-04-25T06:23:35.210Z,586.00
2023-04-25T06:24:35.215Z,583.00
2023-04-25T06:25:35.285Z,580.00
2023-04-25T06:26:35.356Z,576.00
2023-04-25T06:27:35.400Z,574.00
2023-04-25T06:28:35.510Z,574.00
2023-04-25T06:29:35.555Z,573.00
2023-04-25T06:30:35.594Z,574.00
2023-04-25T06:31:35.703Z,571.00
2023-04-25T06:32:35.751Z,569.00
2023-04-25T06:33:35.758Z,568.00
2023-04-25T06:34:35.827Z,566.00
2023-04-25T06:35:35.893Z,565.00
2023-04-25T06:36:35.939Z,566.00
2023-04-25T06:37:36.014Z,563.00
2023-04-25T06:38:36.074Z,560.00
2023-04-25T06:39:38.148Z,560.00
2023-04-25T06:40:36.142Z,561.00
2023-04-25T06:41:36.219Z,560.00
2023-04-25T06:42:36.089Z,561.00
2023-04-25T06:43:36.079Z,560.00
2023-04-25T06:44:36.098Z,558.00
2023-04-25T06:45:36.083Z,558.00
2023-04-25T06:46:36.134Z,557.00
2023-04-25T06:47:36.096Z,557.00
2023-04-25T06:48:36.037Z,557.00
2023-04-25T06:49:36.045Z,554.00
2023-04-25T06:50:36.231Z,555.00
2023-04-25T06:51:36.022Z,553.00
2023-04-25T06:52:36.011Z,2536.00
2023-04-25T06:53:35.995Z,939.00
2023-04-25T06:54:36.009Z,720.00
2023-04-25T06:55:36.016Z,861.00
2023-04-25T06:56:36.007Z,802.00
2023-04-25T06:57:35.994Z,858.00
2023-04-25T06:58:35.980Z,934.00
2023-04-25T06:59:35.978Z,791.00
2023-04-25T07:00:36.000Z,791.00
2023-04-25T07:01:35.958Z,856.00
2023-04-25T07:02:36.106Z,823.00
2023-04-25T07:03:36.098Z,833.00
2023-04-25T07:04:36.084Z,849.00
2023-04-25T07:05:35.961Z,862.00
2023-04-25T07:06:35.992Z,872.00
2023-04-25T07:07:35.950Z,879.00
2023-04-25T07:08:35.902Z,895.00
2023-04-25T07:09:35.912Z,908.00
2023-04-25T07:10:35.907Z,924.00
2023-04-25T07:11:35.890Z,965.00
2023-04-25T07:12:35.915Z,969.00
2023-04-25T07:13:35.882Z,987.00
2023-04-25T07:14:35.875Z,1021.00
2023-04-25T07:15:35.880Z,1028.00
2023-04-25T07:16:35.883Z,1104.00
2023-04-25T07:17:35.944Z,1067.00
2023-04-25T07:18:35.852Z,1056.00
2023-04-25T07:19:35.909Z,1156.00
2023-04-25T07:20:35.835Z,1080.00
2023-04-25T07:21:35.850Z,1179.00
2023-04-25T07:22:35.837Z,1559.00
2023-04-25T07:23:35.802Z,1120.00
2023-04-25T07:24:35.831Z,1154.00
2023-04-25T07:25:35.836Z,1130.00
2023-04-25T07:26:35.814Z,1201.00
2023-04-25T07:27:35.796Z,1158.00
2023-04-25T07:28:35.812Z,1242.00
2023-04-25T07:29:35.801Z,1336.00
2023-04-25T07:30:35.798Z,1199.00
2023-04-25T07:31:35.819Z,1177.00
2023-04-25T07:32:35.821Z,1183.00
2023-04-25T07:33:35.770Z,1191.00
2023-04-25T07:34:35.752Z,1190.00
2023-04-25T07:35:35.733Z,1189.00
2023-04-25T07:36:35.753Z,1188.00
2023-04-25T07:37:35.724Z,1187.00
2023-04-25T07:38:35.738Z,1189.00
2023-04-25T07:39:35.699Z,1188.00
2023-04-25T07:40:35.752Z,1189.00
2023-04-25T07:41:35.709Z,1191.00
2023-04-25T07:42:35.694Z,1208.00
2023-04-25T07:43:35.705Z,1230.00
2023-04-25T07:44:35.671Z,1259.00
2023-04-25T07:45:35.766Z,1267.00
2023-04-25T07:46:35.700Z,1294.00
2023-04-25T07:47:35.652Z,1282.00
2023-04-25T07:48:35.668Z,1263.00
2023-04-25T07:49:35.651Z,1246.00
2023-04-25T07:50:35.650Z,1256.00
2023-04-25T07:51:35.631Z,1265.00
2023-04-25T07:52:35.625Z,1271.00
2023-04-25T07:53:35.615Z,1273.00
2023-04-25T07:54:35.614Z,1278.00
2023-04-25T07:55:35.599Z,1281.00
2023-04-25T07:56:49.153Z,1291.00
2023-04-25T07:57:36.596Z,1302.00
2023-04-25T07:58:35.620Z,1292.00
2023-04-25T07:59:35.575Z,1288.00
2023-04-25T08:00:35.575Z,1300.00
2023-04-25T08:01:35.567Z,1299.00
2023-04-25T08:02:35.623Z,1350.00
2023-04-25T08:03:35.743Z,1359.00
2023-04-25T08:04:35.642Z,1360.00
2023-04-25T08:05:35.685Z,1363.00
2023-04-25T08:06:35.870Z,1372.00
2023-04-25T08:07:35.509Z,1390.00
2023-04-25T08:08:35.523Z,1413.00
2023-04-25T08:09:35.546Z,1435.00
2023-04-25T08:10:35.581Z,1439.00
2023-04-25T08:11:35.606Z,1441.00
2023-04-25T08:12:35.694Z,1474.00
2023-04-25T08:13:35.735Z,1411.00
2023-04-25T08:14:35.757Z,1387.00
2023-04-25T08:15:35.820Z,1316.00
2023-04-25T08:16:35.842Z,1343.00
2023-04-25T08:17:35.991Z,1341.00
2023-04-25T08:18:35.874Z,1341.00
2023-04-25T08:19:35.829Z,1342.00
2023-04-25T08:20:35.855Z,1327.00
2023-04-25T08:21:35.838Z,1225.00
2023-04-25T08:22:35.864Z,1265.00
2023-04-25T08:23:35.817Z,1266.00
2023-04-25T08:24:37.961Z,1280.00
2023-04-25T08:25:35.852Z,1282.00
2023-04-25T08:26:35.822Z,1248.00
2023-04-25T08:27:35.820Z,1259.00
2023-04-25T08:28:35.812Z,1262.00
2023-04-25T08:29:35.834Z,1258.00
2023-04-25T08:30:35.784Z,1236.00
2023-04-25T08:31:35.898Z,1246.00
2023-04-25T08:32:35.818Z,1258.00
2023-04-25T08:33:35.769Z,1264.00
2023-04-25T08:34:35.960Z,1263.00
2023-04-25T08:35:35.772Z,1274.00
2023-04-25T08:36:39.851Z,1267.00
2023-04-25T08:37:35.764Z,1272.00
2023-04-25T08:38:35.760Z,1191.00
2023-04-25T08:39:35.748Z,1189.00
2023-04-25T08:40:35.734Z,1196.00
2023-04-25T08:41:35.745Z,1235.00
2023-04-25T08:42:35.728Z,1236.00
2023-04-25T08:43:35.720Z,1157.00
2023-04-25T08:44:35.699Z,1205.00
2023-04-25T08:45:35.704Z,1232.00
2023-04-25T08:46:35.710Z,1258.00
2023-04-25T08:47:35.770Z,1249.00
2023-04-25T08:48:35.748Z,1225.00
2023-04-25T08:49:35.679Z,1208.00
2023-04-25T08:50:35.678Z,1085.00
2023-04-25T08:51:35.731Z,1061.00
2023-04-25T08:52:35.646Z,1072.00
2023-04-25T08:53:36.381Z,1041.00
2023-04-25T08:54:37.237Z,1036.00
2023-04-25T08:55:35.629Z,978.00
2023-04-25T08:56:35.632Z,961.00
2023-04-25T08:57:35.598Z,948.00
2023-04-25T08:58:35.614Z,901.00
2023-04-25T08:59:37.304Z,890.00
2023-04-25T09:00:35.589Z,877.00
2023-04-25T09:01:35.601Z,870.00
2023-04-25T09:02:35.756Z,856.00
2023-04-25T09:03:35.800Z,870.00
2023-04-25T09:04:35.533Z,860.00
2023-04-25T09:05:35.648Z,855.00
2023-04-25T09:06:35.731Z,855.00
2023-04-25T09:07:35.519Z,854.00
2023-04-25T09:08:35.513Z,846.00
2023-04-25T09:09:35.523Z,838.00
2023-04-25T09:10:35.517Z,823.00
2023-04-25T09:11:35.521Z,817.00
2023-04-25T09:12:35.498Z,807.00
2023-04-25T09:13:35.502Z,769.00
2023-04-25T09:14:35.500Z,762.00
2023-04-25T09:15:35.494Z,761.00
2023-04-25T09:16:37.678Z,759.00
2023-04-25T09:17:35.538Z,755.00
2023-04-25T09:18:35.449Z,746.00
2023-04-25T09:20:40.432Z,739.00
2023-04-25T09:21:36.564Z,738.00
2023-04-25T09:22:35.471Z,733.00
2023-04-25T09:23:35.434Z,711.00
2023-04-25T09:24:35.461Z,695.00
2023-04-25T09:25:35.417Z,687.00
2023-04-25T09:26:35.437Z,681.00
2023-04-25T09:27:35.445Z,676.00
2023-04-25T09:28:35.448Z,669.00
2023-04-25T09:29:35.397Z,663.00
2023-04-25T09:30:35.408Z,660.00
2023-04-25T09:31:35.790Z,653.00
2023-04-25T09:32:35.425Z,645.00
2023-04-25T09:33:35.370Z,640.00
2023-04-25T09:34:35.326Z,635.00
2023-04-25T09:35:35.405Z,631.00
2023-04-25T09:36:35.745Z,628.00
2023-04-25T09:37:35.332Z,628.00
2023-04-25T09:38:35.327Z,629.00
2023-04-25T09:39:35.318Z,629.00
2023-04-25T09:40:35.382Z,627.00
2023-04-25T09:41:35.762Z,628.00
2023-04-25T09:42:36.258Z,630.00
2023-04-25T09:43:35.329Z,636.00
2023-04-25T09:44:35.272Z,747.00
2023-04-25T09:45:35.279Z,737.00
2023-04-25T09:46:35.400Z,739.00
2023-04-25T09:47:35.361Z,758.00
2023-04-25T09:48:35.259Z,740.00
2023-04-25T09:49:35.262Z,744.00
2023-04-25T09:50:35.284Z,739.00
2023-04-25T09:51:35.757Z,784.00
2023-04-25T09:52:35.358Z,795.00
2023-04-25T09:53:35.369Z,803.00
2023-04-25T09:54:35.386Z,848.00
2023-04-25T09:55:35.427Z,912.00
2023-04-25T09:56:35.392Z,949.00
2023-04-25T09:57:35.447Z,958.00
2023-04-25T09:58:35.392Z,966.00
2023-04-25T09:59:35.415Z,967.00
2023-04-25T10:00:35.390Z,972.00
2023-04-25T10:01:35.498Z,980.00
2023-04-25T10:02:35.517Z,993.00
2023-04-25T10:03:35.664Z,1050.00
2023-04-25T10:04:35.470Z,1041.00
2023-04-25T10:05:35.423Z,1047.00
2023-04-25T10:06:35.416Z,1054.00
2023-04-25T10:07:35.453Z,1071.00
2023-04-25T10:08:35.429Z,1083.00
2023-04-25T10:09:35.460Z,1098.00
2023-04-25T10:10:35.409Z,1106.00
2023-04-25T10:11:35.454Z,1111.00
2023-04-25T10:12:35.465Z,1113.00
2023-04-25T10:13:35.545Z,1109.00
2023-04-25T10:14:35.516Z,1105.00
2023-04-25T10:15:37.440Z,1106.00
2023-04-25T10:16:35.531Z,1110.00
2023-04-25T10:17:35.665Z,1116.00
2023-04-25T10:18:35.555Z,1125.00
2023-04-25T10:19:35.494Z,1131.00
2023-04-25T10:20:35.481Z,1134.00
2023-04-25T10:21:35.510Z,1143.00
2023-04-25T10:22:35.485Z,1148.00
2023-04-25T10:23:35.650Z,1153.00
2023-04-25T10:24:35.489Z,1160.00
2023-04-25T10:25:35.491Z,1162.00
2023-04-25T10:26:35.421Z,1166.00
2023-04-25T10:27:35.624Z,1169.00
2023-04-25T10:28:35.519Z,1168.00
2023-04-25T10:29:35.420Z,1170.00
2023-04-25T10:30:35.463Z,1171.00
2023-04-25T10:31:35.546Z,1176.00
2023-04-25T10:32:35.399Z,1177.00
2023-04-25T10:33:35.467Z,1180.00
2023-04-25T10:34:35.382Z,1182.00
2023-04-25T10:35:35.373Z,1179.00
2023-04-25T10:36:35.365Z,1190.00
2023-04-25T10:37:35.876Z,1198.00
2023-04-25T10:38:35.358Z,1196.00
2023-04-25T10:39:35.351Z,1201.00
2023-04-25T10:40:35.362Z,1300.00
2023-04-25T10:41:35.382Z,1277.00
2023-04-25T10:42:35.804Z,1280.00
2023-04-25T10:43:35.365Z,1272.00
2023-04-25T10:44:35.332Z,1106.00
2023-04-25T10:45:35.306Z,1207.00
2023-04-25T10:46:35.341Z,1189.00
2023-04-25T10:47:35.336Z,1187.00
2023-04-25T10:48:35.399Z,1173.00
2023-04-25T10:49:35.442Z,1180.00
2023-04-25T10:50:35.517Z,1194.00
2023-04-25T10:51:51.667Z,1191.00
2023-04-25T10:52:36.548Z,1182.00
2023-04-25T10:53:35.558Z,1176.00
2023-04-25T10:54:35.515Z,1174.00
2023-04-25T10:55:35.604Z,1172.00
2023-04-25T10:56:35.544Z,1171.00
2023-04-25T10:57:35.545Z,1174.00
2023-04-25T10:58:35.576Z,1180.00
2023-04-25T10:59:35.549Z,1216.00
2023-04-25T11:00:53.198Z,1213.00
2023-04-25T11:01:36.649Z,1212.00
2023-04-25T11:02:35.662Z,1212.00
2023-04-25T11:03:35.627Z,1209.00
2023-04-25T11:04:35.804Z,1210.00
2023-04-25T11:05:43.967Z,1217.00
2023-04-25T11:06:36.437Z,1225.00
2023-04-25T11:07:35.818Z,1222.00
2023-04-25T11:08:35.430Z,1212.00
2023-04-25T11:09:35.442Z,1204.00
2023-04-25T11:10:35.398Z,1206.00
2023-04-25T11:11:35.372Z,1208.00
2023-04-25T11:12:35.404Z,1207.00
2023-04-25T11:13:35.362Z,1205.00
2023-04-25T11:14:35.363Z,1207.00
2023-04-25T11:15:35.385Z,1206.00
2023-04-25T11:16:35.397Z,1208.00
2023-04-25T11:17:35.454Z,1205.00
2023-04-25T11:18:35.348Z,1203.00
2023-04-25T11:19:35.332Z,1200.00
2023-04-25T11:20:35.363Z,1188.00
2023-04-25T11:21:35.331Z,1181.00
2023-04-25T11:22:35.307Z,1232.00
2023-04-25T11:23:35.306Z,1204.00
2023-04-25T11:24:35.342Z,1193.00
2023-04-25T11:25:35.561Z,1188.00
2023-04-25T11:26:35.420Z,1186.00
2023-04-25T11:27:35.813Z,1180.00
2023-04-25T11:28:35.460Z,1173.00
2023-04-25T11:29:35.509Z,1173.00
2023-04-25T11:30:35.533Z,1173.00
2023-04-25T11:31:35.599Z,1218.00
2023-04-25T11:32:35.941Z,1192.00
2023-04-25T11:33:35.630Z,1188.00
2023-04-25T11:34:35.676Z,1163.00
2023-04-25T11:35:35.755Z,1164.00
2023-04-25T11:36:35.769Z,1165.00
2023-04-25T11:37:35.890Z,1165.00
2023-04-25T11:38:35.943Z,1165.00
2023-04-25T11:39:35.936Z,1163.00
2023-04-25T11:40:35.949Z,1158.00
2023-04-25T11:41:36.003Z,1152.00
2023-04-25T11:42:36.078Z,1155.00
2023-04-25T11:43:36.111Z,1106.00
2023-04-25T11:44:36.185Z,1808.00
2023-04-25T11:45:36.351Z,1156.00
2023-04-25T11:46:36.344Z,1142.00
2023-04-25T11:47:36.376Z,1121.00
2023-04-25T11:48:36.340Z,1092.00
2023-04-25T11:49:36.444Z,1079.00
2023-04-25T11:50:36.466Z,1094.00
2023-04-25T11:51:36.497Z,1089.00
2023-04-25T11:52:36.557Z,1089.00
2023-04-25T11:53:36.591Z,1084.00
2023-04-25T11:54:36.682Z,1077.00
2023-04-25T11:55:36.694Z,1035.00
2023-04-25T11:56:36.754Z,1031.00
2023-04-25T11:57:36.789Z,1031.00
2023-04-25T11:58:37.046Z,1029.00
2023-04-25T11:59:36.928Z,1019.00
2023-04-25T12:00:36.960Z,1020.00
2023-04-25T12:01:36.974Z,965.00
2023-04-25T12:02:37.375Z,956.00
2023-04-25T12:03:37.260Z,957.00
2023-04-25T12:04:37.451Z,979.00
2023-04-25T12:05:37.313Z,968.00
2023-04-25T12:06:37.220Z,967.00
2023-04-25T12:07:37.261Z,958.00
2023-04-25T12:08:37.341Z,948.00
2023-04-25T12:09:37.356Z,952.00
2023-04-25T12:10:37.402Z,904.00
2023-04-25T12:11:38.823Z,914.00
2023-04-25T12:12:37.500Z,899.00
2023-04-25T12:13:37.547Z,903.00
2023-04-25T12:14:37.595Z,900.00
2023-04-25T12:15:37.705Z,898.00
2023-04-25T12:16:37.862Z,877.00
2023-04-25T12:17:37.809Z,877.00
2023-04-25T12:18:37.787Z,870.00
2023-04-25T12:19:37.812Z,859.00
2023-04-25T12:20:37.882Z,853.00
2023-04-25T12:21:46.864Z,846.00
2023-04-25T12:22:38.962Z,837.00